LiveATC.Net - Listen to live air traffic control over the Internet! Contact LiveATC.net for advertising information

Find LiveATC Audio Streams


Airport/ARTCC Code

Frequency
(e.g., 124.400, 128.75)
Site-wide search

Browse LiveATC Feeds
LiveATC Coverage Map
Top 50 LiveATC Feeds
Bad Weather Areas

LiveATC FAQ
Offer a LiveATC Feed
Contact LiveATC.net
Press Inquiries

LiveATC on iPhone
LiveATC on Android

LiveATC Mobile
(Mobile browser)

ATC Audio Archives
Interesting Recordings

LiveATC Forums

Home Page
About LiveATC.net
Make a Donation
LiveATC Bookstore

Terms of Use
Privacy Policy

ATC/Radar Sites
U.S. ARTCC Freqs
Canadian Air Freqs

AIRMETs/SIGMETs

FAA Airport Status
Nat'l Airspace Status
Arrival Demand Charts


Server Software By:
Icecast.org
Liquidsoap


Current Potentially Bad Weather Airports
(updated every 30 minutes - sorted alphabetically by ICAO code)



This page lists LiveATC.net airport areas that may be interesting to listen to because of challenging flying (weather) conditions. Challenging weather conditions include low ceilings, limited visibility, high or gusty winds, or thunderstorms. This is an evolving new feature and comments are welcome.

Updated: Fri Oct 31 04:40:01 UTC 2014
Click on airport name to go to that airport area's feeds.

CYTS CTAF/FSS/Area
WX MAP UNAVAILABLECYTS 310400Z 36007KT 3SM -SN FEW009 BKN038 OVC074 M02/M03 A3004 RMK SF1SC5AC2 SLP190
CYVO Gnd/RDO/Center
WX MAP UNAVAILABLECYVO 310400Z AUTO 33003KT 9SM -SN SCT017 BKN027 BKN049 M02/ A3001 RMK SLP182
CYZF Ground/Tower
WX MAP UNAVAILABLECYZF 310400Z 13010KT 15SM OVC009 01/M00 A2988 RMK SC8 SLP133
EKBI Twr/App/Control
WX MAP UNAVAILABLEEKBI 310420Z AUTO 13007KT 1200NDV R09/P1500N R27/P1500N BR OVC002/// 10/09 Q1021
ENCN Tower/Approach
WX MAP UNAVAILABLEENCN 310420Z AUTO 05008KT 4600NDV -RA OVC006/// 06/05 Q1022
EPLL Tower
WX MAP UNAVAILABLEEPLL 310400Z VRB02KT 6000 OVC003 05/05 Q1027
EVRA Tower/Guard
WX MAP UNAVAILABLEEVRA 310420Z 18003KT 6000 1000SW R18/P2000N BCFG BKN001 M01/M01 Q1023 R36/190095 TEMPO 0700 FZFG
KALO Gnd/Twr/App
kaloKALO 310354Z 35023G30KT 10SM SCT026 OVC037 07/01 A3019 RMK AO2 PK WND 34030/0348 SLP227 T00720006
KJAX Gnd/Twr/App
kjaxKJAX 310356Z 27003KT 10SM FEW050 FEW095 SCT250 18/13 A2990 RMK AO2 SLP125 OCNL LTGIC DSNT SE CB DSNT SE T01780133
KMCO Tower/App
kmcoKMCO 310353Z 17003KT 10SM SCT044 BKN120 BKN240 22/19 A2990 RMK AO2 SLP123 OCNL LTGIC DSNT SE CB DSNT SE MOV E T02170194
KMEM Approach
kmemKMEM 310354Z 20006KT 10SM SCT075 BKN100 14/07 A3000 RMK AO2 SLP159 OCNL LTGIC DSNT N-NE CB DSNT N-NE T01390072 $
KMLB Twr/App
kmlbKMLB 310414Z AUTO 00000KT 10SM VCTS BKN060 22/19 A2988 RMK AO2 LTG DSNT SW-NW T02220194
KPDT Tower
kpdtKPDT 310427Z AUTO 31006KT 2 1/2SM BR CLR 09/08 A2979 RMK AO2 T00890083 $
KSAW Gnd/Twr/ZMP
WX MAP UNAVAILABLEKSAW 310417Z AUTO 35013G16KT 5SM -SN BKN008 OVC012 01/00 A2997 RMK AO2 T00070000
KSGJ Ground/Tower
ksgjKSGJ 310426Z AUTO 28003KT 2 1/2SM BR BKN002 18/18 A2990 RMK AO2
LHBP Approach
WX MAP UNAVAILABLELHBP 310430Z 00000KT 1600 R31R/0225N FZBCFG BR SCT001 M02/M03 Q1026 TEMPO 0600 FZFG BKN002
LHDC Info/Tower
WX MAP UNAVAILABLELHDC 310405Z /////KT 0300 FG FZFG
LSZG Tower
WX MAP UNAVAILABLELSZG 310420Z AUTO 00000KT 0050 FG VV001 04/04 Q1026
LSZH Tower #2
WX MAP UNAVAILABLELSZH 310420Z 36002KT 0300 R14/0550N R16/0600N R28/0600N R34/0600N FG VV002 04/04 Q1027 TEMPO 0200 VV001
MSSS Tower
WX MAP UNAVAILABLEMSSS 310350Z 08005KT 3000 TSRA SCT020 FEW033CB 21/20 Q1015 A2997
PAFA Gnd/Twr/App
pafaPAFA 310353Z 25003KT 8SM -SN SCT014 OVC045 M09/M13 A2964 RMK AO2 SLP048 P0000 T10941128
PGUM/PGUA Gnd/Twr/App/Center
pguaPGUA 310428Z AUTO 09016G22KT 9SM -RA FEW006 BKN014 BKN020 28/24 A2973 RMK AO2 RAB0429 CIG 014V021 BKN014 V SCT RVRNO $
TJSJ Twr/App/Dep
tjsjTJSJ 310356Z 23004KT 10SM FEW045 SCT075 26/25 A2985 RMK AO2 SLP106 OCNL LTGIC NW CB DSNT NW T02610250 403110256